Time;durP1;ratioP1;P1;durP2;ratioP2;P2;SDS_P1;SDS_P2;PMS_P1;PMS_P2;Temp;Humidity;BMP_temperature;BMP_pressure;BME280_temperature;BME280_humidity;BME280_pressure;Samples;Min_cycle;Max_cycle;Signal;HPM_P1;HPM_P2
2023/10/12 00:05:56;;;;;;;;;;;;;;;-144.32;100.00;68061.97;10306389;28;19926;-83
2023/10/12 00:10:57;;;;;;;;;;;;;;;-144.32;100.00;68061.97;10301383;28;19932;-85
2023/10/12 00:16:06;;;;;;;;;;;;;;;-144.32;100.00;68061.97;10299451;28;19953;-83
2023/10/12 00:21:25;;;;;;;;;;;;;;;-144.32;100.00;68061.97;10248315;28;19962;-87
2023/10/12 00:26:30;;;;;;;;;;;;;;;-144.32;100.00;68061.97;10264507;28;20291;-85
2023/10/12 00:31:32;;;;;;;;;;;;;;;-144.32;100.00;68061.97;10281425;28;19936;-83
2023/10/12 00:36:37;;;;;;;;;;;;;;;-144.32;100.00;68061.97;10247171;28;20017;-86
2023/10/12 00:41:39;;;;;;;;;;;;;;;-144.32;100.00;68061.97;10272758;28;19926;-85
2023/10/12 00:47:07;;;;;;;;;;;;;;;-144.32;100.00;68061.97;10299914;28;19933;-84
2023/10/12 00:52:21;;;;;;;;;;;;;;;-144.32;100.00;68061.97;10327901;28;19929;-86
2023/10/12 00:57:22;;;;;;;;;;;;;;;-144.32;100.00;68061.97;10314085;28;19922;-82
2023/10/12 01:02:31;;;;;;;;;;;;;;;-144.32;100.00;68061.97;10298799;28;19941;-83
2023/10/12 01:07:36;;;;;;;;;;;;;;;-144.32;100.00;68061.97;10319236;28;19926;-83
2023/10/12 01:12:37;;;;;;;;;;;;;;;-144.32;100.00;68061.97;10333806;28;19910;-91
2023/10/12 01:17:40;;;;;;;;;;;;;;;-144.32;100.00;68061.97;10351813;28;19926;-82
2023/10/12 01:22:40;;;;;;;;;;;;;;;-144.32;100.00;68061.97;10328711;28;19932;-86
2023/10/12 01:27:44;;;;;;;;;;;;;;;-144.32;100.00;68061.97;10310701;28;19926;-87
2023/10/12 01:32:51;;;;;;;;;;;;;;;-144.32;100.00;68061.97;10300362;28;19926;-83
2023/10/12 01:38:00;;;;;;;;;;;;;;;-144.32;100.00;68061.97;10315962;28;20139;-85
2023/10/12 01:43:01;;;;;;;;;;;;;;;-144.32;100.00;68061.97;10287137;28;19925;-85
2023/10/12 01:48:17;;;;;;;;;;;;;;;-144.32;100.00;68061.97;10286502;28;20260;-83
2023/10/12 01:53:29;;;;;;;;;;;;;;;-144.32;100.00;68061.97;10335914;28;19940;-91
2023/10/12 01:58:35;;;;;;;;;;;;;;;-144.32;100.00;68061.97;10339697;28;20947;-87
2023/10/12 02:03:42;;;;;;;;;;;;;;;-144.32;100.00;68061.97;10298599;28;19964;-92
2023/10/12 02:14:33;;;;;;;;;;;;;;;-144.32;100.00;68061.97;10212514;28;20439;-85
2023/10/12 02:19:41;;;;;;;;;;;;;;;-144.32;100.00;68061.97;10249881;28;19926;-89
2023/10/12 02:24:50;;;;;;;;;;;;;;;-144.32;100.00;68061.97;10257623;28;20338;-86
2023/10/12 02:29:56;;;;;;;;;;;;;;;-144.32;100.00;68061.97;10311391;28;19916;-87
2023/10/12 02:47:05;;;;;;;;;;;;;;;-144.32;100.00;68061.97;10305075;28;19953;-86
2023/10/12 02:52:08;;;;;;;;;;;;;;;-144.32;100.00;68061.97;10261285;28;19930;-87
2023/10/12 02:57:09;;;;;;;;;;;;;;;-144.32;100.00;68061.97;10279193;28;20287;-90
2023/10/12 03:02:22;;;;;;;;;;;;;;;-144.32;100.00;68061.97;10277997;28;19926;-85
2023/10/12 03:07:23;;;;;;;;;;;;;;;-144.32;100.00;68061.97;10296501;28;19922;-84
2023/10/12 03:12:24;;;;;;;;;;;;;;;-144.32;100.00;68061.97;10276261;28;19960;-84
2023/10/12 03:17:26;;;;;;;;;;;;;;;-144.32;100.00;68061.97;10274404;28;19925;-82
2023/10/12 03:22:34;;;;;;;;;;;;;;;-144.32;100.00;68061.97;10292162;28;20351;-83
2023/10/12 03:27:35;;;;;;;;;;;;;;;-144.32;100.00;68061.97;10302134;28;19928;-83
2023/10/12 03:32:36;;;;;;;;;;;;;;;-144.32;100.00;68061.97;10250769;28;20350;-84
2023/10/12 03:37:45;;;;;;;;;;;;;;;-144.32;100.00;68061.97;10272431;28;20279;-84
2023/10/12 03:42:47;;;;;;;;;;;;;;;-144.32;100.00;68061.97;10281548;28;19937;-84
2023/10/12 03:53:07;;;;;;;;;;;;;;;-144.32;100.00;68061.97;10267443;28;19925;-83
2023/10/12 03:58:08;;;;;;;;;;;;;;;-144.32;100.00;68061.97;10299013;28;19918;-89
2023/10/12 04:03:18;;;;;;;;;;;;;;;-144.32;100.00;68061.97;10322284;28;20407;-90
2023/10/12 04:08:38;;;;;;;;;;;;;;;-144.32;100.00;68061.97;10352239;28;19930;-90
2023/10/12 04:18:41;;;;;;;;;;;;;;;-144.32;100.00;68061.97;10312757;28;19993;-86
2023/10/12 04:28:58;;;;;;;;;;;;;;;-144.32;100.00;68061.97;10291504;28;19965;-82
2023/10/12 04:34:08;;;;;;;;;;;;;;;-144.32;100.00;68061.97;10271193;28;20345;-83
2023/10/12 04:54:32;;;;;;;;;;;;;;;-144.32;100.00;68061.97;10277015;28;19926;-82
2023/10/12 05:00:06;;;;;;;;;;;;;;;-144.32;100.00;68061.97;10272666;28;19981;-85
2023/10/12 05:09:56;;;;;;;;;;;;;;;-144.32;100.00;68061.97;10275191;28;20279;-83
2023/10/12 05:15:01;;;;;;;;;;;;;;;-144.32;100.00;68061.97;10267136;28;19929;-87
2023/10/12 05:20:01;;;;;;;;;;;;;;;-144.32;100.00;68061.97;10262289;28;19942;-79
2023/10/12 05:25:04;;;;;;;;;;;;;;;-144.32;100.00;68061.97;10255840;28;20062;-79
2023/10/12 05:30:16;;;;;;;;;;;;;;;-144.32;100.00;68061.97;10271607;28;20298;-78
2023/10/12 05:35:16;;;;;;;;;;;;;;;-144.32;100.00;68061.97;10276705;28;21079;-81
2023/10/12 05:40:18;;;;;;;;;;;;;;;-144.32;100.00;68061.97;10285215;28;20000;-81
2023/10/12 05:45:22;;;;;;;;;;;;;;;-144.32;100.00;68061.97;10263483;28;20039;-82
2023/10/12 05:50:28;;;;;;;;;;;;;;;-144.32;100.00;68061.97;10298848;28;19909;-82
2023/10/12 05:55:33;;;;;;;;;;;;;;;-144.32;100.00;68061.97;10346863;28;19930;-83
2023/10/12 06:00:37;;;;;;;;;;;;;;;-144.32;100.00;68061.97;10354312;28;19937;-86
2023/10/12 06:05:39;;;;;;;;;;;;;;;-144.32;100.00;68061.97;10294950;28;20298;-86
2023/10/12 06:10:43;;;;;;;;;;;;;;;-144.32;100.00;68061.97;10328711;28;19916;-88
2023/10/12 06:15:53;;;;;;;;;;;;;;;-144.32;100.00;68061.97;10324899;28;19926;-87
2023/10/12 06:20:58;;;;;;;;;;;;;;;-144.32;100.00;68061.97;10291110;28;20548;-87
2023/10/12 06:26:14;;;;;;;;;;;;;;;-144.32;100.00;68061.97;10284219;28;19933;-85
2023/10/12 06:31:21;;;;;;;;;;;;;;;-144.32;100.00;68061.97;10287023;28;19992;-83
2023/10/12 06:36:38;;;;;;;;;;;;;;;-144.32;100.00;68061.97;10293741;28;19922;-83
2023/10/12 06:46:54;;;;;;;;;;;;;;;-144.32;100.00;68061.97;10286249;28;19922;-85
2023/10/12 06:52:03;;;;;;;;;;;;;;;-144.32;100.00;68061.97;10348606;28;19918;-86
2023/10/12 07:02:24;;;;;;;;;;;;;;;-144.32;100.00;68061.97;10223873;28;20339;-84
2023/10/12 07:07:27;;;;;;;;;;;;;;;-144.32;100.00;68061.97;10246881;28;19926;-83
2023/10/12 07:12:29;;;;;;;;;;;;;;;-144.32;100.00;68061.97;10267093;28;19938;-85
2023/10/12 07:17:32;;;;;;;;;;;;;;;-144.32;100.00;68061.97;10284118;28;19981;-83
2023/10/12 07:22:36;;;;;;;;;;;;;;;-144.32;100.00;68061.97;10286009;28;19922;-86
2023/10/12 07:27:49;;;;;;;;;;;;;;;-144.32;100.00;68061.97;10278095;28;19933;-86
2023/10/12 07:32:55;;;;;;;;;;;;;;;-144.32;100.00;68061.97;10250065;28;20401;-86
2023/10/12 07:37:56;;;;;;;;;;;;;;;-144.32;100.00;68061.97;10237202;28;19922;-86
2023/10/12 07:43:03;;;;;;;;;;;;;;;-144.32;100.00;68061.97;10240082;28;20322;-88
2023/10/12 07:48:09;;;;;;;;;;;;;;;-144.32;100.00;68061.97;10208088;28;20016;-84
2023/10/12 07:53:24;;;;;;;;;;;;;;;-144.32;100.00;68061.97;10218066;28;20029;-84
2023/10/12 07:58:25;;;;;;;;;;;;;;;-144.32;100.00;68061.97;10231292;28;20017;-85
2023/10/12 08:03:25;;;;;;;;;;;;;;;-144.32;100.00;68061.97;10221734;28;19933;-85
2023/10/12 08:08:35;;;;;;;;;;;;;;;-144.32;100.00;68061.97;10222976;28;20006;-86
2023/10/12 08:13:39;;;;;;;;;;;;;;;-144.32;100.00;68061.97;10225306;28;19927;-85
2023/10/12 08:29:09;;;;;;;;;;;;;;;-144.32;100.00;68061.97;10262474;28;20359;-82
2023/10/12 08:39:39;;;;;;;;;;;;;;;-144.32;100.00;68061.97;10285645;28;19917;-81
2023/10/12 08:44:43;;;;;;;;;;;;;;;-144.32;100.00;68061.97;10287942;28;19910;-86
2023/10/12 08:50:47;;;;;;;;;;;;;;;-144.32;100.00;68061.97;10270146;28;19926;-82
2023/10/12 08:55:31;;;;;;;;;;;;;;;-144.32;100.00;68061.97;10247378;28;19941;-81
2023/10/12 09:05:39;;;;;;;;;;;;;;;-144.32;100.00;68061.97;10233563;28;20347;-83
2023/10/12 09:10:54;;;;;;;;;;;;;;;-144.32;100.00;68061.97;10234307;28;19934;-82
2023/10/12 09:15:59;;;;;;;;;;;;;;;-144.32;100.00;68061.97;10208261;28;20025;-83
2023/10/12 09:31:32;;;;;;;;;;;;;;;-144.32;100.00;68061.97;10234567;28;19961;-81
2023/10/12 09:36:32;;;;;;;;;;;;;;;-144.32;100.00;68061.97;10232423;28;20018;-81
2023/10/12 09:41:36;;;;;;;;;;;;;;;-144.32;100.00;68061.97;10219757;28;19926;-82
2023/10/12 09:46:39;;;;;;;;;;;;;;;-144.32;100.00;68061.97;10229212;28;19926;-83
2023/10/12 09:51:47;;;;;;;;;;;;;;;-144.32;100.00;68061.97;10229742;28;19927;-80
2023/10/12 09:56:57;;;;;;;;;;;;;;;-144.32;100.00;68061.97;10224679;28;19931;-82
2023/10/12 10:07:32;;;;;;;;;;;;;;;-144.32;100.00;68061.97;10215241;28;20486;-80
2023/10/12 10:12:42;;;;;;;;;;;;;;;-144.32;100.00;68061.97;10225456;28;19927;-85
2023/10/12 10:17:56;;;;;;;;;;;;;;;-144.32;100.00;68061.97;10282967;28;19921;-85
2023/10/12 10:22:57;;;;;;;;;;;;;;;-144.32;100.00;68061.97;10276827;28;19935;-83
2023/10/12 10:27:57;;;;;;;;;;;;;;;-144.32;100.00;68061.97;10247840;28;19934;-84
2023/10/12 10:33:06;;;;;;;;;;;;;;;-144.32;100.00;68061.97;10284691;28;19958;-84
2023/10/12 10:38:08;;;;;;;;;;;;;;;-144.32;100.00;68061.97;10291564;28;19922;-80
2023/10/12 10:43:14;;;;;;;;;;;;;;;-144.32;100.00;68061.97;10273950;28;19922;-80
2023/10/12 10:48:18;;;;;;;;;;;;;;;-144.32;100.00;68061.97;10294458;28;20962;-78
2023/10/12 10:53:20;;;;;;;;;;;;;;;-144.32;100.00;68061.97;10286521;28;19972;-80
2023/10/12 10:58:22;;;;;;;;;;;;;;;-144.32;100.00;68061.97;10272679;28;20010;-79
2023/10/12 11:03:26;;;;;;;;;;;;;;;-144.32;100.00;68061.97;10254788;28;19922;-79
2023/10/12 11:08:31;;;;;;;;;;;;;;;-144.32;100.00;68061.97;10247050;28;19930;-83
2023/10/12 11:13:33;;;;;;;;;;;;;;;-144.32;100.00;68061.97;10270138;28;19933;-82
2023/10/12 11:18:35;;;;;;;;;;;;;;;-144.32;100.00;68061.97;10272054;28;19933;-81
2023/10/12 11:23:37;;;;;;;;;;;;;;;-144.32;100.00;68061.97;10276741;28;20434;-83
2023/10/12 11:28:41;;;;;;;;;;;;;;;-144.32;100.00;68061.97;10263707;28;20659;-79
2023/10/12 11:33:47;;;;;;;;;;;;;;;-144.32;100.00;68061.97;10283611;28;19925;-80
2023/10/12 11:38:57;;;;;;;;;;;;;;;-144.32;100.00;68061.97;10275933;28;20336;-82
2023/10/12 11:43:58;;;;;;;;;;;;;;;-144.32;100.00;68061.97;10276419;28;20387;-84
2023/10/12 11:49:05;;;;;;;;;;;;;;;-144.32;100.00;68061.97;10280380;28;19933;-86
2023/10/12 11:54:08;;;;;;;;;;;;;;;-144.32;100.00;68061.97;10277448;28;19965;-81
2023/10/12 11:59:13;;;;;;;;;;;;;;;-144.32;100.00;68061.97;10281333;28;19930;-83
2023/10/12 12:04:23;;;;;;;;;;;;;;;-144.32;100.00;68061.97;10279431;28;19926;-83
2023/10/12 12:09:27;;;;;;;;;;;;;;;-144.32;100.00;68061.97;10230007;28;19922;-84
2023/10/12 12:14:27;;;;;;;;;;;;;;;-144.32;100.00;68061.97;10233647;28;19931;-83
2023/10/12 12:19:33;;;;;;;;;;;;;;;-144.32;100.00;68061.97;10228912;28;19931;-82
2023/10/12 12:24:33;;;;;;;;;;;;;;;-144.32;100.00;68061.97;10300229;28;20272;-85
2023/10/12 12:29:33;;;;;;;;;;;;;;;-144.32;100.00;68061.97;10281249;28;19947;-87
2023/10/12 12:34:38;;;;;;;;;;;;;;;-144.32;100.00;68061.97;10276412;28;20389;-80
2023/10/12 12:39:42;;;;;;;;;;;;;;;-144.32;100.00;68061.97;10279996;28;19929;-81
2023/10/12 12:44:45;;;;;;;;;;;;;;;-144.32;100.00;68061.97;10278256;28;20426;-85
2023/10/12 12:49:47;;;;;;;;;;;;;;;-144.32;100.00;68061.97;10284669;28;19995;-82
2023/10/12 12:55:39;;;;;;;;;;;;;;;-144.32;100.00;68061.97;10262258;28;20001;-82
2023/10/12 13:01:00;;;;;;;;;;;;;;;-144.32;100.00;68061.97;10265756;28;20530;-82
2023/10/12 13:06:09;;;;;;;;;;;;;;;-144.32;100.00;68061.97;10259308;28;20519;-82
2023/10/12 13:11:11;;;;;;;;;;;;;;;-144.32;100.00;68061.97;10284836;28;19926;-84
2023/10/12 13:16:13;;;;;;;;;;;;;;;-144.32;100.00;68061.97;10295036;28;19921;-83
2023/10/12 13:21:14;;;;;;;;;;;;;;;-144.32;100.00;68061.97;10306316;28;20016;-83
2023/10/12 13:26:17;;;;;;;;;;;;;;;-144.32;100.00;68061.97;10308514;28;19926;-82
2023/10/12 13:31:18;;;;;;;;;;;;;;;-144.32;100.00;68061.97;10275630;28;19933;-84
2023/10/12 13:36:18;;;;;;;;;;;;;;;-144.32;100.00;68061.97;10312056;23;20193;-82
2023/10/12 13:41:20;;;;;;;;;;;;;;;-144.32;100.00;68061.97;10281789;28;19936;-83
2023/10/12 13:46:21;;;;;;;;;;;;;;;-144.32;100.00;68061.97;10294659;28;20721;-81
2023/10/12 13:51:32;;;;;;;;;;;;;;;-144.32;100.00;68061.97;10300907;28;19932;-81
2023/10/12 13:56:34;;;;;;;;;;;;;;;-144.32;100.00;68061.97;10308671;28;19947;-83
2023/10/12 14:01:37;;;;;;;;;;;;;;;-144.32;100.00;68061.97;10305771;28;19925;-81
2023/10/12 14:06:39;;;;;;;;;;;;;;;-144.32;100.00;68061.97;10314982;28;20012;-81
2023/10/12 14:11:57;;;;;;;;;;;;;;;-144.32;100.00;68061.97;10319515;28;19937;-85
2023/10/12 14:16:58;;;;;;;;;;;;;;;-144.32;100.00;68061.97;10353251;28;19906;-86
2023/10/12 14:22:04;;;;;;;;;;;;;;;-144.32;100.00;68061.97;10347980;28;19922;-81
2023/10/12 14:27:06;;;;;;;;;;;;;;;-144.32;100.00;68061.97;10298422;28;19992;-83
2023/10/12 14:32:08;;;;;;;;;;;;;;;-144.32;100.00;68061.97;10285559;28;19921;-81
2023/10/12 14:37:13;;;;;;;;;;;;;;;-144.32;100.00;68061.97;10244013;28;19957;-83
2023/10/12 14:42:16;;;;;;;;;;;;;;;-144.32;100.00;68061.97;10271237;28;19922;-83
2023/10/12 14:47:22;;;;;;;;;;;;;;;-144.32;100.00;68061.97;10254328;28;19930;-82
2023/10/12 14:52:31;;;;;;;;;;;;;;;-144.32;100.00;68061.97;10294613;28;20024;-81
2023/10/12 14:57:31;;;;;;;;;;;;;;;-144.32;100.00;68061.97;10287626;28;19930;-82
2023/10/12 15:02:34;;;;;;;;;;;;;;;-144.32;100.00;68061.97;10284867;28;20298;-84
2023/10/12 15:07:37;;;;;;;;;;;;;;;-144.32;100.00;68061.97;10272743;28;20479;-85
2023/10/12 15:12:43;;;;;;;;;;;;;;;-144.32;100.00;68061.97;10254097;28;19955;-82
2023/10/12 15:17:45;;;;;;;;;;;;;;;-144.32;100.00;68061.97;10234002;28;19934;-81
2023/10/12 15:22:46;;;;;;;;;;;;;;;-144.32;100.00;68061.97;10231339;28;19926;-86
2023/10/12 15:27:49;;;;;;;;;;;;;;;-144.32;100.00;68061.97;10213259;28;19945;-83
2023/10/12 15:32:50;;;;;;;;;;;;;;;-144.32;100.00;68061.97;10222693;28;19986;-83
2023/10/12 15:37:57;;;;;;;;;;;;;;;-144.32;100.00;68061.97;10233016;28;19938;-83
2023/10/12 15:43:04;;;;;;;;;;;;;;;-144.32;100.00;68061.97;10236334;28;19926;-86
2023/10/12 15:48:05;;;;;;;;;;;;;;;-144.32;100.00;68061.97;10222584;28;19923;-84
2023/10/12 15:53:06;;;;;;;;;;;;;;;-144.32;100.00;68061.97;10209909;28;19958;-81
2023/10/12 15:58:11;;;;;;;;;;;;;;;-144.32;100.00;68061.97;10258042;28;19922;-80
2023/10/12 16:03:19;;;;;;;;;;;;;;;-144.32;100.00;68061.97;10259647;28;19994;-81
2023/10/12 16:08:21;;;;;;;;;;;;;;;-144.32;100.00;68061.97;10332323;28;19921;-82
2023/10/12 16:13:22;;;;;;;;;;;;;;;-144.32;100.00;68061.97;10313865;28;19963;-80
2023/10/12 16:18:24;;;;;;;;;;;;;;;-144.32;100.00;68061.97;10282369;28;19925;-80
2023/10/12 16:23:26;;;;;;;;;;;;;;;-144.32;100.00;68061.97;10268362;28;19933;-84
2023/10/12 16:28:28;;;;;;;;;;;;;;;-144.32;100.00;68061.97;10284742;28;19933;-80
2023/10/12 16:33:32;;;;;;;;;;;;;;;-144.32;100.00;68061.97;10258308;28;20088;-82
2023/10/12 16:38:35;;;;;;;;;;;;;;;-144.32;100.00;68061.97;10274943;28;19926;-87
2023/10/12 16:43:36;;;;;;;;;;;;;;;-144.32;100.00;68061.97;10270649;28;19921;-85
2023/10/12 16:48:38;;;;;;;;;;;;;;;-144.32;100.00;68061.97;10264993;28;19934;-84
2023/10/12 16:53:39;;;;;;;;;;;;;;;-144.32;100.00;68061.97;10268311;28;19932;-82
2023/10/12 16:58:40;;;;;;;;;;;;;;;-144.32;100.00;68061.97;10274494;28;19921;-79
2023/10/12 17:03:40;;;;;;;;;;;;;;;-144.32;100.00;68061.97;10261503;28;19926;-80
2023/10/12 17:08:41;;;;;;;;;;;;;;;-144.32;100.00;68061.97;10268246;28;19926;-80
2023/10/12 17:13:43;;;;;;;;;;;;;;;-144.32;100.00;68061.97;10278419;28;19925;-80
2023/10/12 17:18:45;;;;;;;;;;;;;;;-144.32;100.00;68061.97;10286037;28;20505;-81
2023/10/12 17:23:46;;;;;;;;;;;;;;;-144.32;100.00;68061.97;10293756;28;19948;-84
2023/10/12 17:28:46;;;;;;;;;;;;;;;-144.32;100.00;68061.97;10259378;28;19981;-81
2023/10/12 17:33:47;;;;;;;;;;;;;;;-144.32;100.00;68061.97;10280012;28;19929;-85
2023/10/12 17:38:52;;;;;;;;;;;;;;;-144.32;100.00;68061.97;10280131;28;20074;-82
2023/10/12 17:43:56;;;;;;;;;;;;;;;-144.32;100.00;68061.97;10309136;28;19998;-82
2023/10/12 17:48:56;;;;;;;;;;;;;;;-144.32;100.00;68061.97;10283636;28;19930;-84
2023/10/12 17:53:59;;;;;;;;;;;;;;;-144.32;100.00;68061.97;10291709;28;19928;-85
2023/10/12 17:58:59;;;;;;;;;;;;;;;-144.32;100.00;68061.97;10314366;28;19930;-83
2023/10/12 18:04:00;;;;;;;;;;;;;;;-144.32;100.00;68061.97;10299618;28;19936;-82
2023/10/12 18:09:03;;;;;;;;;;;;;;;-144.32;100.00;68061.97;10281659;28;19996;-82
2023/10/12 18:14:04;;;;;;;;;;;;;;;-144.32;100.00;68061.97;10284567;28;20409;-81
2023/10/12 18:19:05;;;;;;;;;;;;;;;-144.32;100.00;68061.97;10268722;28;19932;-81
2023/10/12 18:24:07;;;;;;;;;;;;;;;-144.32;100.00;68061.97;10279498;28;19953;-82
2023/10/12 18:29:09;;;;;;;;;;;;;;;-144.32;100.00;68061.97;10270464;28;20936;-84
2023/10/12 18:34:10;;;;;;;;;;;;;;;-144.32;100.00;68061.97;10278818;28;19937;-82
2023/10/12 18:39:13;;;;;;;;;;;;;;;-144.32;100.00;68061.97;10279926;28;19932;-86
2023/10/12 18:44:14;;;;;;;;;;;;;;;-144.32;100.00;68061.97;10279520;28;19965;-84
2023/10/12 18:49:15;;;;;;;;;;;;;;;-144.32;100.00;68061.97;10261067;28;19934;-83
2023/10/12 18:54:15;;;;;;;;;;;;;;;-144.32;100.00;68061.97;10272390;28;21000;-84
2023/10/12 18:59:16;;;;;;;;;;;;;;;-144.32;100.00;68061.97;10271176;28;19925;-82
2023/10/12 19:04:17;;;;;;;;;;;;;;;-144.32;100.00;68061.97;10272707;28;20090;-80
2023/10/12 19:09:17;;;;;;;;;;;;;;;-144.32;100.00;68061.97;10265727;28;19929;-81
2023/10/12 19:14:18;;;;;;;;;;;;;;;-144.32;100.00;68061.97;10274349;28;20032;-82
2023/10/12 19:19:18;;;;;;;;;;;;;;;-144.32;100.00;68061.97;10275007;28;20681;-80
2023/10/12 19:24:18;;;;;;;;;;;;;;;-144.32;100.00;68061.97;10275189;28;19930;-83
2023/10/12 19:29:19;;;;;;;;;;;;;;;-144.32;100.00;68061.97;10278695;28;19936;-82
2023/10/12 19:34:20;;;;;;;;;;;;;;;-144.32;100.00;68061.97;10265506;28;20005;-83
2023/10/12 19:39:23;;;;;;;;;;;;;;;-144.32;100.00;68061.97;10275776;28;20005;-81
2023/10/12 19:44:24;;;;;;;;;;;;;;;-144.32;100.00;68061.97;10278956;28;19926;-82
2023/10/12 19:49:24;;;;;;;;;;;;;;;-144.32;100.00;68061.97;10268481;28;19994;-81
2023/10/12 19:54:25;;;;;;;;;;;;;;;-144.32;100.00;68061.97;10283820;28;19926;-83
2023/10/12 19:59:28;;;;;;;;;;;;;;;-144.32;100.00;68061.97;10269367;28;19952;-82
2023/10/12 20:04:29;;;;;;;;;;;;;;;-144.32;100.00;68061.97;10264279;28;19984;-80
2023/10/12 20:09:30;;;;;;;;;;;;;;;-144.32;100.00;68061.97;10272209;28;19930;-81
2023/10/12 20:14:32;;;;;;;;;;;;;;;-144.32;100.00;68061.97;10268944;28;19954;-80
2023/10/12 20:19:33;;;;;;;;;;;;;;;-144.32;100.00;68061.97;10251580;28;19927;-81
2023/10/12 20:24:34;;;;;;;;;;;;;;;-144.32;100.00;68061.97;10278645;28;19926;-86
2023/10/12 20:29:35;;;;;;;;;;;;;;;-144.32;100.00;68061.97;10286580;28;19926;-80
2023/10/12 20:34:35;;;;;;;;;;;;;;;-144.32;100.00;68061.97;10277794;28;21260;-83
2023/10/12 20:39:36;;;;;;;;;;;;;;;-144.32;100.00;68061.97;10280278;28;19926;-81
2023/10/12 20:44:36;;;;;;;;;;;;;;;-144.32;100.00;68061.97;10275744;28;19981;-82
2023/10/12 20:49:39;;;;;;;;;;;;;;;-144.32;100.00;68061.97;10270269;28;19926;-80
2023/10/12 20:54:42;;;;;;;;;;;;;;;-144.32;100.00;68061.97;10265223;28;19936;-83
2023/10/12 20:59:46;;;;;;;;;;;;;;;-144.32;100.00;68061.97;10248971;28;20013;-82
2023/10/12 21:04:49;;;;;;;;;;;;;;;-144.32;100.00;68061.97;10237561;28;19926;-82
2023/10/12 21:10:04;;;;;;;;;;;;;;;-144.32;100.00;68061.97;10196393;28;19927;-82
2023/10/12 21:15:06;;;;;;;;;;;;;;;-144.32;100.00;68061.97;10200513;28;19970;-83
2023/10/12 21:20:32;;;;;;;;;;;;;;;-144.32;100.00;68061.97;10209822;28;19953;-84
2023/10/12 21:25:38;;;;;;;;;;;;;;;-144.32;100.00;68061.97;10225128;28;19926;-86
2023/10/12 21:30:39;;;;;;;;;;;;;;;-144.32;100.00;68061.97;10223619;28;19929;-82
2023/10/12 21:35:45;;;;;;;;;;;;;;;-144.32;100.00;68061.97;10220628;28;19926;-83
2023/10/12 21:40:45;;;;;;;;;;;;;;;-144.32;100.00;68061.97;10224287;28;19928;-83
2023/10/12 21:45:57;;;;;;;;;;;;;;;-144.32;100.00;68061.97;10220386;28;19926;-82
2023/10/12 21:50:58;;;;;;;;;;;;;;;-144.32;100.00;68061.97;10232632;28;20014;-85
2023/10/12 21:56:00;;;;;;;;;;;;;;;-144.32;100.00;68061.97;10229987;28;19926;-83
2023/10/12 22:01:07;;;;;;;;;;;;;;;-144.32;100.00;68061.97;10213686;28;20661;-82
2023/10/12 22:06:15;;;;;;;;;;;;;;;-144.32;100.00;68061.97;10226503;28;20463;-86
2023/10/12 22:11:20;;;;;;;;;;;;;;;-144.32;100.00;68061.97;10224413;28;20716;-83
2023/10/12 22:16:31;;;;;;;;;;;;;;;-144.32;100.00;68061.97;10225770;28;20151;-83
2023/10/12 22:21:32;;;;;;;;;;;;;;;-144.32;100.00;68061.97;10225529;28;19931;-83
2023/10/12 22:26:40;;;;;;;;;;;;;;;-144.32;100.00;68061.97;10194596;28;20001;-82
2023/10/12 22:31:46;;;;;;;;;;;;;;;-144.32;100.00;68061.97;10223633;28;19926;-81
2023/10/12 22:36:49;;;;;;;;;;;;;;;-144.32;100.00;68061.97;10227102;28;19933;-84
2023/10/12 22:41:49;;;;;;;;;;;;;;;-144.32;100.00;68061.97;10223498;28;19927;-83
2023/10/12 22:46:50;;;;;;;;;;;;;;;-144.32;100.00;68061.97;10246291;28;19982;-84
2023/10/12 22:51:50;;;;;;;;;;;;;;;-144.32;100.00;68061.97;10277913;28;19913;-87
2023/10/12 22:56:52;;;;;;;;;;;;;;;-144.32;100.00;68061.97;10262764;28;19974;-87
2023/10/12 23:01:53;;;;;;;;;;;;;;;-144.32;100.00;68061.97;10244163;28;20010;-83
2023/10/12 23:06:54;;;;;;;;;;;;;;;-144.32;100.00;68061.97;10217922;28;20823;-85
2023/10/12 23:11:56;;;;;;;;;;;;;;;-144.32;100.00;68061.97;10212939;28;19926;-84
2023/10/12 23:16:57;;;;;;;;;;;;;;;-144.32;100.00;68061.97;10221568;28;20320;-89
2023/10/12 23:22:00;;;;;;;;;;;;;;;-144.32;100.00;68061.97;10236783;28;20454;-86
2023/10/12 23:27:03;;;;;;;;;;;;;;;-144.32;100.00;68061.97;10222580;28;19926;-81
2023/10/12 23:32:07;;;;;;;;;;;;;;;-144.32;100.00;68061.97;10207516;28;20510;-82
2023/10/12 23:37:10;;;;;;;;;;;;;;;-144.32;100.00;68061.97;10218837;28;19922;-83
2023/10/12 23:42:13;;;;;;;;;;;;;;;-144.32;100.00;68061.97;10225102;28;19926;-81
2023/10/12 23:47:15;;;;;;;;;;;;;;;-144.32;100.00;68061.97;10228584;28;19926;-81
2023/10/12 23:52:27;;;;;;;;;;;;;;;-144.32;100.00;68061.97;10206285;28;19930;-79
2023/10/12 23:57:27;;;;;;;;;;;;;;;-144.32;100.00;68061.97;10221954;28;20380;-81
